Time;durP1;ratioP1;P1;durP2;ratioP2;P2;SDS_P1;SDS_P2;PMS_P1;PMS_P2;Temp;Humidity;BMP_temperature;BMP_pressure;BME280_temperature;BME280_humidity;BME280_pressure;Samples;Min_cycle;Max_cycle;Signal;HPM_P1;HPM_P2
2021/12/27 00:00:46;;;;;;;1.40;0.80;;;7.60;99.90;;;;;;5077564;28;20458;-56
2021/12/27 00:03:13;;;;;;;12.13;1.00;;;7.70;99.90;;;;;;5096653;28;20445;-51
2021/12/27 00:05:42;;;;;;;2.33;0.80;;;7.70;99.90;;;;;;5095711;28;20548;-55
2021/12/27 00:08:10;;;;;;;1.87;1.00;;;7.70;99.90;;;;;;5096012;28;20795;-53
2021/12/27 00:10:41;;;;;;;1.30;1.00;;;7.70;99.90;;;;;;5096428;28;20800;-55
2021/12/27 00:13:08;;;;;;;1.40;0.90;;;7.70;99.90;;;;;;5097038;28;20477;-55
2021/12/27 00:15:36;;;;;;;2.00;0.97;;;7.70;99.90;;;;;;5097616;28;20491;-56
2021/12/27 00:18:04;;;;;;;2.90;1.10;;;7.70;99.90;;;;;;5098592;28;20522;-53
2021/12/27 00:20:32;;;;;;;1.80;1.00;;;7.80;99.90;;;;;;5098783;28;20457;-51
2021/12/27 00:23:01;;;;;;;2.03;1.00;;;7.70;99.90;;;;;;5098998;28;20452;-51
2021/12/27 00:25:30;;;;;;;1.73;0.90;;;7.70;99.90;;;;;;5099670;28;20544;-51
2021/12/27 00:27:59;;;;;;;2.07;0.90;;;7.60;99.90;;;;;;5099074;28;20524;-56
2021/12/27 00:30:30;;;;;;;1.53;0.80;;;7.70;99.90;;;;;;5098980;28;20565;-55
2021/12/27 00:32:58;;;;;;;3.13;1.53;;;7.60;99.90;;;;;;5098076;28;20937;-55
2021/12/27 00:35:26;;;;;;;3.50;1.80;;;7.60;99.90;;;;;;5098697;28;20576;-54
2021/12/27 00:37:54;;;;;;;1.80;1.00;;;7.60;99.90;;;;;;5098827;28;20536;-53
2021/12/27 00:40:21;;;;;;;2.83;1.00;;;7.60;99.90;;;;;;5098784;28;20510;-52
2021/12/27 00:42:49;;;;;;;1.50;0.97;;;7.60;99.90;;;;;;5098630;28;20533;-52
2021/12/27 00:45:20;;;;;;;1.33;0.80;;;7.60;99.90;;;;;;5099286;28;20473;-55
2021/12/27 00:47:47;;;;;;;1.80;0.90;;;7.60;99.90;;;;;;5098060;28;20820;-55
2021/12/27 00:50:14;;;;;;;1.33;0.80;;;7.60;99.90;;;;;;5097987;28;20543;-53
2021/12/27 00:52:41;;;;;;;3.33;1.20;;;7.60;99.90;;;;;;5098818;28;20477;-55
2021/12/27 00:55:11;;;;;;;1.93;0.80;;;7.60;99.90;;;;;;5098332;28;20576;-56
2021/12/27 00:57:40;;;;;;;3.50;1.10;;;7.60;99.90;;;;;;5098313;28;20823;-56
2021/12/27 01:00:10;;;;;;;4.80;1.00;;;7.60;99.90;;;;;;5098272;28;20851;-53
2021/12/27 01:02:39;;;;;;;2.57;1.00;;;7.60;99.90;;;;;;5080398;28;20446;-55
2021/12/27 01:05:10;;;;;;;2.70;1.00;;;7.60;99.90;;;;;;5098320;28;20831;-53
2021/12/27 01:07:37;;;;;;;2.00;1.30;;;7.60;99.90;;;;;;5098357;28;20488;-54
2021/12/27 01:10:19;;;;;;;3.40;1.10;;;7.60;99.90;;;;;;5097339;28;20972;-55
2021/12/27 01:13:01;;;;;;;3.90;1.30;;;7.60;99.90;;;;;;5098468;28;20449;-56
2021/12/27 01:15:47;;;;;;;2.73;1.10;;;7.60;99.90;;;;;;5098206;28;20488;-54
2021/12/27 01:18:19;;;;;;;2.57;1.10;;;7.50;99.90;;;;;;5098569;28;20864;-55
2021/12/27 01:20:47;;;;;;;2.47;1.10;;;7.50;99.90;;;;;;5097272;28;20831;-52
2021/12/27 01:23:14;;;;;;;2.10;1.00;;;7.50;99.90;;;;;;5096925;28;20536;-56
2021/12/27 01:25:41;;;;;;;5.10;1.10;;;7.50;99.90;;;;;;5096878;28;20489;-53
2021/12/27 01:28:12;;;;;;;2.90;1.10;;;7.40;99.90;;;;;;5096706;28;20489;-55
2021/12/27 01:30:47;;;;;;;1.60;1.00;;;7.40;99.90;;;;;;5095965;28;20527;-55
2021/12/27 01:33:16;;;;;;;2.83;1.10;;;7.40;99.90;;;;;;5096939;28;20456;-53
2021/12/27 01:35:43;;;;;;;2.57;1.00;;;7.30;99.90;;;;;;5097820;28;20489;-51
2021/12/27 01:38:12;;;;;;;3.00;1.30;;;7.30;99.90;;;;;;5098183;28;20446;-54
2021/12/27 01:40:44;;;;;;;2.93;1.07;;;7.30;99.90;;;;;;5097857;28;20496;-56
2021/12/27 01:43:13;;;;;;;2.57;1.00;;;7.30;99.90;;;;;;5097531;28;20449;-57
2021/12/27 01:45:45;;;;;;;2.37;1.20;;;7.30;99.90;;;;;;5097171;28;20474;-54
2021/12/27 01:48:14;;;;;;;2.40;1.10;;;7.30;99.90;;;;;;5096771;28;20806;-55
2021/12/27 01:50:44;;;;;;;3.53;1.20;;;7.30;99.90;;;;;;5096876;28;20464;-55
2021/12/27 01:53:13;;;;;;;2.37;1.30;;;7.20;99.90;;;;;;5096190;28;20761;-55
2021/12/27 01:55:41;;;;;;;3.00;1.47;;;7.30;99.90;;;;;;5096334;28;20979;-54
2021/12/27 01:58:08;;;;;;;4.00;1.77;;;7.20;99.90;;;;;;5096457;28;20521;-55
2021/12/27 02:00:37;;;;;;;3.63;1.53;;;7.20;99.90;;;;;;5096390;28;20976;-54
2021/12/27 02:03:05;;;;;;;2.93;1.17;;;7.20;99.90;;;;;;5096846;28;20485;-55
2021/12/27 02:05:33;;;;;;;3.43;0.97;;;7.20;99.90;;;;;;5097189;28;20483;-56
2021/12/27 02:08:04;;;;;;;2.57;1.00;;;7.10;99.90;;;;;;5097104;28;20473;-54
2021/12/27 02:10:32;;;;;;;2.07;1.00;;;7.10;99.90;;;;;;5096527;28;20552;-54
2021/12/27 02:13:00;;;;;;;2.80;1.13;;;7.10;99.90;;;;;;5096554;28;20895;-55
2021/12/27 02:15:27;;;;;;;3.40;0.90;;;7.10;99.90;;;;;;5096615;28;20943;-53
2021/12/27 02:17:55;;;;;;;2.37;1.13;;;7.10;99.90;;;;;;5097256;28;20540;-50
2021/12/27 02:20:29;;;;;;;2.70;1.27;;;7.10;99.90;;;;;;5096814;28;20539;-52
2021/12/27 02:23:00;;;;;;;1.70;1.00;;;7.10;99.90;;;;;;5096888;28;20536;-53
2021/12/27 02:25:31;;;;;;;2.20;1.10;;;7.00;99.90;;;;;;5097263;28;20528;-54
2021/12/27 02:28:04;;;;;;;2.63;1.10;;;7.00;99.90;;;;;;5096694;28;20536;-55
2021/12/27 02:30:31;;;;;;;3.17;1.00;;;7.00;99.90;;;;;;5096541;28;20560;-55
2021/12/27 02:33:00;;;;;;;2.80;1.10;;;7.10;99.90;;;;;;5096716;28;20853;-55
2021/12/27 02:35:31;;;;;;;1.90;1.00;;;7.10;99.90;;;;;;5096883;28;20485;-53
2021/12/27 02:38:00;;;;;;;2.40;1.43;;;7.10;99.90;;;;;;5096528;28;20536;-56
2021/12/27 02:40:30;;;;;;;1.60;0.80;;;7.10;99.90;;;;;;5095272;28;20454;-54
2021/12/27 02:42:59;;;;;;;1.93;0.80;;;7.10;99.90;;;;;;5096502;28;20956;-54
2021/12/27 02:45:27;;;;;;;1.93;0.90;;;7.10;99.90;;;;;;5096726;28;20549;-55
2021/12/27 02:47:54;;;;;;;3.27;1.10;;;7.10;99.90;;;;;;5096406;28;20939;-55
2021/12/27 02:50:23;;;;;;;1.67;0.90;;;7.10;99.90;;;;;;5095019;28;20840;-52
2021/12/27 02:52:52;;;;;;;4.10;1.00;;;7.20;99.90;;;;;;5094830;28;20503;-55
2021/12/27 02:55:19;;;;;;;2.60;0.90;;;7.10;99.90;;;;;;5093750;28;20489;-55
2021/12/27 02:57:48;;;;;;;2.90;1.10;;;7.10;99.90;;;;;;5094128;28;20488;-53
2021/12/27 03:00:17;;;;;;;1.80;0.87;;;7.20;99.90;;;;;;5093345;28;20504;-51
2021/12/27 03:02:45;;;;;;;2.00;0.83;;;7.20;99.90;;;;;;5094028;28;20927;-52
2021/12/27 03:05:14;;;;;;;2.30;0.90;;;7.20;99.90;;;;;;5096157;28;20480;-53
2021/12/27 03:07:41;;;;;;;3.50;0.93;;;7.20;99.90;;;;;;5096272;28;20446;-51
2021/12/27 03:10:12;;;;;;;2.00;0.90;;;7.20;99.90;;;;;;5096425;28;20484;-55
2021/12/27 03:12:39;;;;;;;1.40;0.97;;;7.30;99.90;;;;;;5096648;28;20502;-54
2021/12/27 03:15:08;;;;;;;2.43;0.90;;;7.30;99.90;;;;;;5096188;28;20547;-54
2021/12/27 03:17:35;;;;;;;1.50;0.70;;;7.30;99.90;;;;;;5095276;28;20532;-56
2021/12/27 03:20:03;;;;;;;1.20;0.70;;;7.30;99.90;;;;;;5095249;28;20493;-54
2021/12/27 03:22:30;;;;;;;1.57;0.90;;;7.30;99.90;;;;;;5096185;28;20885;-53
2021/12/27 03:24:57;;;;;;;3.83;0.80;;;7.30;99.90;;;;;;5096054;28;20536;-49
2021/12/27 03:27:26;;;;;;;1.30;0.70;;;7.30;99.90;;;;;;5095888;28;20491;-55
2021/12/27 03:29:54;;;;;;;2.40;0.90;;;7.30;99.90;;;;;;5095921;28;20500;-51
2021/12/27 03:32:21;;;;;;;2.00;0.80;;;7.30;99.90;;;;;;5097516;28;20446;-56
2021/12/27 03:34:55;;;;;;;1.30;0.80;;;7.30;99.90;;;;;;5099962;28;20500;-54
2021/12/27 03:37:23;;;;;;;1.10;0.60;;;7.20;99.90;;;;;;5099669;28;20458;-56
2021/12/27 03:39:51;;;;;;;2.17;0.80;;;7.20;99.90;;;;;;5099881;28;20547;-57
2021/12/27 03:42:18;;;;;;;1.20;0.70;;;7.30;99.90;;;;;;5100100;28;20537;-56
2021/12/27 03:44:46;;;;;;;1.40;0.70;;;7.30;99.90;;;;;;5099502;28;20461;-55
2021/12/27 03:47:14;;;;;;;1.37;0.70;;;7.30;99.90;;;;;;5100367;28;20747;-52
2021/12/27 03:49:41;;;;;;;1.60;0.70;;;7.40;99.90;;;;;;5097336;28;20457;-54
2021/12/27 03:52:08;;;;;;;2.47;0.80;;;7.40;99.90;;;;;;5098080;28;20450;-53
2021/12/27 03:54:35;;;;;;;3.40;0.63;;;7.40;99.90;;;;;;5098027;28;20932;-53
2021/12/27 03:57:02;;;;;;;1.60;0.60;;;7.40;99.90;;;;;;5099478;28;21026;-55
2021/12/27 03:59:48;;;;;;;1.13;0.70;;;7.40;99.90;;;;;;5099221;28;20568;-54
2021/12/27 04:02:17;;;;;;;1.80;0.70;;;7.40;99.90;;;;;;5099808;28;20449;-53
2021/12/27 04:04:45;;;;;;;0.93;0.53;;;7.30;99.90;;;;;;5099506;28;20544;-51
2021/12/27 04:07:13;;;;;;;0.90;0.60;;;7.30;99.90;;;;;;5098602;28;20536;-55
2021/12/27 04:09:40;;;;;;;1.20;0.60;;;7.40;99.90;;;;;;5099052;28;20821;-54
2021/12/27 04:12:08;;;;;;;3.97;0.60;;;7.40;99.90;;;;;;5098570;28;20488;-55
2021/12/27 04:14:35;;;;;;;0.80;0.53;;;7.40;99.90;;;;;;5099080;28;20489;-55
2021/12/27 04:17:02;;;;;;;2.90;0.50;;;7.40;99.90;;;;;;5099042;28;20548;-55
2021/12/27 04:19:30;;;;;;;1.07;0.60;;;7.50;99.90;;;;;;5099303;28;20787;-56
2021/12/27 04:21:57;;;;;;;0.97;0.50;;;7.50;99.90;;;;;;5099446;28;20528;-55
2021/12/27 04:24:24;;;;;;;1.27;0.50;;;7.50;99.90;;;;;;5098497;28;20552;-55
2021/12/27 04:26:51;;;;;;;0.90;0.50;;;7.40;99.90;;;;;;5099307;28;20805;-52
2021/12/27 04:29:18;;;;;;;0.70;0.40;;;7.50;99.90;;;;;;5097565;28;20556;-55
2021/12/27 04:31:45;;;;;;;0.60;0.40;;;7.60;99.90;;;;;;5097217;28;20499;-53
2021/12/27 04:34:12;;;;;;;0.70;0.40;;;7.50;99.90;;;;;;5098285;28;20496;-55
2021/12/27 04:36:40;;;;;;;1.10;0.60;;;7.50;99.90;;;;;;5099282;28;20513;-51
2021/12/27 04:39:08;;;;;;;1.10;0.60;;;7.40;99.90;;;;;;5098797;28;20549;-51
2021/12/27 04:41:35;;;;;;;0.70;0.50;;;7.40;99.90;;;;;;5099058;28;20503;-51
2021/12/27 04:44:02;;;;;;;0.70;0.47;;;7.50;99.90;;;;;;5098421;28;20881;-56
2021/12/27 04:46:29;;;;;;;0.70;0.40;;;7.50;99.90;;;;;;5098409;28;20546;-55
2021/12/27 04:48:56;;;;;;;1.33;0.60;;;7.50;99.90;;;;;;5097556;28;20556;-56
2021/12/27 04:51:23;;;;;;;1.27;0.50;;;7.50;99.90;;;;;;5097260;28;20485;-56
2021/12/27 04:53:52;;;;;;;0.77;0.40;;;7.50;99.90;;;;;;5097098;28;20536;-53
2021/12/27 04:56:19;;;;;;;1.23;0.50;;;7.40;99.90;;;;;;5096738;28;20581;-55
2021/12/27 04:58:46;;;;;;;0.80;0.40;;;7.40;99.90;;;;;;5097265;28;20587;-53
2021/12/27 05:01:13;;;;;;;1.97;0.43;;;7.40;99.90;;;;;;5098615;28;20485;-55
2021/12/27 05:03:40;;;;;;;0.97;0.40;;;7.40;99.90;;;;;;5097975;28;20528;-56
2021/12/27 05:06:08;;;;;;;0.70;0.40;;;7.40;99.90;;;;;;5097782;28;20473;-54
2021/12/27 05:08:35;;;;;;;0.47;0.30;;;7.40;99.90;;;;;;5097536;28;20911;-54
2021/12/27 05:11:04;;;;;;;1.10;0.30;;;7.40;99.90;;;;;;5098221;28;20541;-53
2021/12/27 05:13:32;;;;;;;0.60;0.40;;;7.40;99.90;;;;;;5097815;28;20628;-54
2021/12/27 05:16:00;;;;;;;1.33;0.50;;;7.40;99.90;;;;;;5098009;28;20785;-54
2021/12/27 05:18:27;;;;;;;1.50;0.40;;;7.40;99.90;;;;;;5098414;28;20540;-54
2021/12/27 05:20:54;;;;;;;0.57;0.30;;;7.40;99.90;;;;;;5097869;28;20540;-52
2021/12/27 05:23:21;;;;;;;0.70;0.40;;;7.40;99.90;;;;;;5097667;28;20486;-55
2021/12/27 05:25:48;;;;;;;0.80;0.50;;;7.40;99.90;;;;;;5097602;28;20458;-55
2021/12/27 05:28:16;;;;;;;0.50;0.30;;;7.50;99.90;;;;;;5097126;28;20492;-57
2021/12/27 05:30:47;;;;;;;2.40;0.40;;;7.50;99.90;;;;;;5095775;28;20964;-58
2021/12/27 05:33:16;;;;;;;0.77;0.50;;;7.50;99.90;;;;;;5096167;28;20513;-58
2021/12/27 05:35:43;;;;;;;0.60;0.30;;;7.50;99.90;;;;;;5096029;28;20477;-58
2021/12/27 05:38:10;;;;;;;0.80;0.50;;;7.50;99.90;;;;;;5096243;28;20897;-58
2021/12/27 05:40:38;;;;;;;0.83;0.50;;;7.50;99.90;;;;;;5096117;28;20552;-56
2021/12/27 05:43:06;;;;;;;0.60;0.30;;;7.50;99.90;;;;;;5096197;28;20532;-57
2021/12/27 05:45:35;;;;;;;0.80;0.40;;;7.60;99.90;;;;;;5097160;28;20560;-55
2021/12/27 05:48:02;;;;;;;0.77;0.40;;;7.60;99.90;;;;;;5097504;28;20450;-56
2021/12/27 05:50:29;;;;;;;0.87;0.43;;;7.60;99.90;;;;;;5097096;28;20465;-55
2021/12/27 05:52:56;;;;;;;0.60;0.40;;;7.50;99.90;;;;;;5097571;28;20484;-56
2021/12/27 05:55:24;;;;;;;0.60;0.40;;;7.50;99.90;;;;;;5096714;28;20489;-56
2021/12/27 05:57:52;;;;;;;0.60;0.40;;;7.50;99.90;;;;;;5097138;28;20532;-59
2021/12/27 06:00:19;;;;;;;0.77;0.43;;;7.50;99.90;;;;;;5097070;28;20513;-58
2021/12/27 06:02:48;;;;;;;0.70;0.40;;;7.50;99.90;;;;;;5097033;28;20481;-58
2021/12/27 06:05:17;;;;;;;0.57;0.40;;;7.50;99.90;;;;;;5096717;28;20823;-58
2021/12/27 06:07:44;;;;;;;0.73;0.50;;;7.50;99.90;;;;;;5095378;28;20745;-55
2021/12/27 06:10:11;;;;;;;0.77;0.40;;;7.40;99.90;;;;;;5094730;28;20765;-59
2021/12/27 06:12:40;;;;;;;0.87;0.40;;;7.30;99.90;;;;;;5094444;28;20840;-58
2021/12/27 06:15:08;;;;;;;0.93;0.50;;;7.30;99.90;;;;;;5094477;28;20497;-57
2021/12/27 06:17:38;;;;;;;0.80;0.30;;;7.30;99.90;;;;;;5095357;28;20564;-56
2021/12/27 06:20:11;;;;;;;0.60;0.30;;;7.30;99.90;;;;;;5094843;28;20536;-53
2021/12/27 06:22:42;;;;;;;0.80;0.50;;;7.30;99.90;;;;;;5094806;28;20445;-55
2021/12/27 06:25:09;;;;;;;0.77;0.40;;;7.20;99.90;;;;;;5095494;28;20544;-56
2021/12/27 06:27:36;;;;;;;0.80;0.40;;;7.20;99.90;;;;;;5096613;28;20817;-56
2021/12/27 06:30:08;;;;;;;0.80;0.50;;;7.20;99.90;;;;;;5096252;28;20496;-56
2021/12/27 06:32:34;;;;;;;0.83;0.40;;;7.10;99.90;;;;;;5096789;28;20449;-57
2021/12/27 06:35:02;;;;;;;0.70;0.33;;;7.10;99.90;;;;;;5096188;28;20496;-57
2021/12/27 06:37:34;;;;;;;0.70;0.30;;;7.10;99.90;;;;;;5094536;28;20520;-57
2021/12/27 06:40:01;;;;;;;0.80;0.40;;;7.00;99.90;;;;;;5094969;28;20539;-55
2021/12/27 06:42:28;;;;;;;0.90;0.50;;;7.00;99.90;;;;;;5094154;28;20808;-56
2021/12/27 06:44:55;;;;;;;0.77;0.43;;;6.90;99.90;;;;;;5092456;28;20480;-57
2021/12/27 06:47:22;;;;;;;0.77;0.43;;;6.90;99.90;;;;;;5095190;28;20430;-55
2021/12/27 06:49:49;;;;;;;0.60;0.40;;;6.80;99.90;;;;;;5095246;28;20530;-57
2021/12/27 06:52:16;;;;;;;1.90;0.47;;;6.80;99.90;;;;;;5095668;28;20449;-56
2021/12/27 06:54:45;;;;;;;0.70;0.50;;;6.70;99.90;;;;;;5096124;28;20488;-57
2021/12/27 06:57:12;;;;;;;3.30;0.53;;;6.70;99.90;;;;;;5095046;28;21026;-57
2021/12/27 06:59:39;;;;;;;0.80;0.50;;;6.60;99.90;;;;;;5094508;28;20580;-57
2021/12/27 07:02:06;;;;;;;0.80;0.50;;;6.60;99.90;;;;;;5095030;28;20516;-56
2021/12/27 07:04:34;;;;;;;2.13;0.50;;;6.60;99.90;;;;;;5095031;28;20556;-56
2021/12/27 07:07:00;;;;;;;0.53;0.37;;;6.50;99.90;;;;;;5095214;28;20532;-56
2021/12/27 07:09:27;;;;;;;0.83;0.50;;;6.60;99.90;;;;;;5095717;28;20561;-54
2021/12/27 07:11:56;;;;;;;0.90;0.50;;;6.70;99.90;;;;;;5095163;28;20528;-56
2021/12/27 07:14:23;;;;;;;1.43;0.50;;;6.70;99.90;;;;;;5094142;28;20583;-57
2021/12/27 07:16:51;;;;;;;2.90;0.53;;;6.70;99.90;;;;;;5095253;28;20880;-56
2021/12/27 07:19:18;;;;;;;1.30;0.40;;;6.80;99.90;;;;;;5094418;28;20458;-56
2021/12/27 07:21:45;;;;;;;0.80;0.60;;;6.70;99.90;;;;;;5093706;28;20536;-55
2021/12/27 07:24:12;;;;;;;0.80;0.47;;;6.70;99.90;;;;;;5094024;28;20496;-53
2021/12/27 07:26:39;;;;;;;1.97;0.60;;;6.70;99.90;;;;;;5093917;28;20532;-53
2021/12/27 07:29:07;;;;;;;0.70;0.40;;;6.70;99.90;;;;;;5094271;28;20824;-55
2021/12/27 07:31:34;;;;;;;0.80;0.40;;;6.70;99.90;;;;;;5094049;28;20472;-55
2021/12/27 07:34:01;;;;;;;1.30;0.60;;;6.70;99.90;;;;;;5094677;28;20965;-54
2021/12/27 07:36:29;;;;;;;0.80;0.50;;;6.60;99.90;;;;;;5095109;28;20481;-54
2021/12/27 07:38:57;;;;;;;1.10;0.60;;;6.60;99.90;;;;;;5094332;28;20456;-56
2021/12/27 07:41:25;;;;;;;1.10;0.50;;;6.70;99.90;;;;;;5091665;28;20477;-56
2021/12/27 07:43:52;;;;;;;0.90;0.60;;;6.70;99.90;;;;;;5090600;28;20446;-56
2021/12/27 07:46:20;;;;;;;1.70;0.80;;;6.70;99.90;;;;;;5089940;28;20568;-55
2021/12/27 07:48:47;;;;;;;0.67;0.40;;;6.90;99.90;;;;;;5092238;28;20800;-54
2021/12/27 07:51:14;;;;;;;1.00;0.40;;;6.80;99.90;;;;;;5090147;28;20976;-52
2021/12/27 07:53:41;;;;;;;1.20;0.60;;;6.90;99.90;;;;;;5091186;28;20532;-53
2021/12/27 07:56:09;;;;;;;2.80;0.60;;;6.90;99.90;;;;;;5092188;28;20461;-54
2021/12/27 07:58:36;;;;;;;0.83;0.57;;;7.00;99.90;;;;;;5093643;28;20572;-55
2021/12/27 08:01:03;;;;;;;1.00;0.40;;;6.90;99.90;;;;;;5093547;28;20939;-53
2021/12/27 08:03:32;;;;;;;0.80;0.60;;;6.90;99.90;;;;;;5095582;28;20508;-51
2021/12/27 08:06:00;;;;;;;1.80;0.60;;;6.80;99.90;;;;;;5094644;28;20651;-54
2021/12/27 08:08:26;;;;;;;1.20;0.50;;;6.80;99.90;;;;;;5094333;28;20536;-53
2021/12/27 08:10:54;;;;;;;0.60;0.40;;;6.80;99.90;;;;;;5094912;28;20455;-47
2021/12/27 08:13:22;;;;;;;1.00;0.60;;;6.80;99.90;;;;;;5094066;28;20440;-52
2021/12/27 08:15:48;;;;;;;0.60;0.40;;;6.90;99.90;;;;;;5093760;28;20438;-49
2021/12/27 08:18:15;;;;;;;1.97;0.60;;;6.90;99.90;;;;;;5094448;28;20568;-53
2021/12/27 08:20:44;;;;;;;0.90;0.53;;;6.90;99.90;;;;;;5096690;28;20484;-51
2021/12/27 08:23:12;;;;;;;1.20;0.60;;;7.00;99.90;;;;;;5096291;28;20532;-52
2021/12/27 08:25:38;;;;;;;0.70;0.50;;;7.10;99.90;;;;;;5097876;28;20528;-50
2021/12/27 08:28:06;;;;;;;1.00;0.50;;;7.00;99.90;;;;;;5096856;28;20528;-51
2021/12/27 08:30:33;;;;;;;0.90;0.50;;;7.10;99.90;;;;;;5096207;28;20532;-52
2021/12/27 08:33:00;;;;;;;0.80;0.50;;;7.10;99.90;;;;;;5096694;28;20949;-54
2021/12/27 08:35:28;;;;;;;1.33;0.50;;;7.00;99.90;;;;;;5092858;28;20529;-53
2021/12/27 08:37:56;;;;;;;1.20;0.80;;;7.10;99.90;;;;;;5095362;28;20531;-56
2021/12/27 08:40:23;;;;;;;1.07;0.60;;;7.10;99.90;;;;;;5087171;28;20522;-56
2021/12/27 08:42:50;;;;;;;4.00;0.60;;;7.20;99.90;;;;;;5087137;28;20485;-57
2021/12/27 08:45:17;;;;;;;1.07;0.50;;;7.30;99.90;;;;;;5093526;28;21055;-56
2021/12/27 08:47:44;;;;;;;2.00;0.40;;;7.40;99.90;;;;;;5097466;28;20951;-55
2021/12/27 08:50:13;;;;;;;1.10;0.50;;;7.50;99.90;;;;;;5097085;28;20446;-56
2021/12/27 08:52:41;;;;;;;0.90;0.50;;;7.60;99.90;;;;;;5098082;28;20454;-55
2021/12/27 08:55:10;;;;;;;0.60;0.40;;;7.60;99.90;;;;;;5096621;28;20445;-55
2021/12/27 08:57:38;;;;;;;0.83;0.40;;;7.60;99.90;;;;;;5096842;28;20485;-56
2021/12/27 09:00:08;;;;;;;1.10;0.60;;;7.70;99.90;;;;;;5095817;28;20522;-56
2021/12/27 09:02:35;;;;;;;1.10;0.50;;;7.80;99.90;;;;;;5095002;28;20552;-55
2021/12/27 09:05:08;;;;;;;2.60;0.60;;;7.80;99.90;;;;;;5094036;28;20525;-54
2021/12/27 09:07:35;;;;;;;0.70;0.50;;;7.80;99.90;;;;;;5093530;28;20446;-51
2021/12/27 09:10:03;;;;;;;1.70;0.60;;;7.80;99.90;;;;;;5095709;28;20471;-57
2021/12/27 09:12:39;;;;;;;1.00;0.60;;;7.70;99.90;;;;;;5095423;28;20454;-57
2021/12/27 09:15:07;;;;;;;1.33;0.60;;;7.70;99.90;;;;;;5095139;28;20449;-55
2021/12/27 09:17:42;;;;;;;0.80;0.50;;;7.70;99.90;;;;;;5095655;28;20492;-58
2021/12/27 09:20:18;;;;;;;1.50;0.60;;;7.70;99.90;;;;;;5094067;28;20445;-58
2021/12/27 09:22:45;;;;;;;1.10;0.50;;;7.70;99.90;;;;;;5093488;28;20480;-58
2021/12/27 09:25:12;;;;;;;1.00;0.63;;;7.70;99.90;;;;;;5093630;28;20496;-55
2021/12/27 09:27:40;;;;;;;0.90;0.63;;;7.70;99.90;;;;;;5093569;28;20485;-58
2021/12/27 09:30:09;;;;;;;4.80;1.53;;;7.70;99.90;;;;;;5091892;28;20474;-58
2021/12/27 09:32:36;;;;;;;3.60;1.93;;;7.60;99.90;;;;;;5092439;28;20493;-59
2021/12/27 09:35:04;;;;;;;3.73;0.83;;;7.60;99.90;;;;;;5091794;28;20473;-58
2021/12/27 09:37:31;;;;;;;0.93;0.70;;;7.70;99.90;;;;;;5086592;28;20481;-58
2021/12/27 09:39:59;;;;;;;1.23;0.60;;;7.70;99.90;;;;;;5091029;28;20562;-56
2021/12/27 09:42:30;;;;;;;1.20;0.70;;;7.70;99.90;;;;;;5092798;28;20565;-56
2021/12/27 09:44:59;;;;;;;1.13;0.80;;;7.80;99.90;;;;;;5091415;28;20960;-57
2021/12/27 09:47:27;;;;;;;1.83;0.70;;;7.80;99.90;;;;;;5091889;28;20533;-58
2021/12/27 09:49:54;;;;;;;1.47;0.60;;;7.80;99.90;;;;;;5093655;28;20881;-56
2021/12/27 09:52:21;;;;;;;5.53;0.70;;;7.80;99.90;;;;;;5094353;28;20477;-57
2021/12/27 09:54:48;;;;;;;1.43;0.80;;;7.90;99.90;;;;;;5094605;28;21044;-58
2021/12/27 09:57:16;;;;;;;1.20;0.80;;;7.90;99.90;;;;;;5091906;28;20543;-56
2021/12/27 09:59:43;;;;;;;1.00;0.60;;;7.90;99.90;;;;;;5087586;28;20306;-58
2021/12/27 10:02:12;;;;;;;0.90;0.53;;;8.00;99.90;;;;;;5093626;28;20536;-57
2021/12/27 10:04:41;;;;;;;0.70;0.60;;;8.00;99.90;;;;;;5094577;28;20442;-56
2021/12/27 10:07:09;;;;;;;1.10;0.50;;;8.00;99.90;;;;;;5093843;28;20443;-58
2021/12/27 10:09:38;;;;;;;1.00;0.50;;;8.00;99.90;;;;;;5078023;28;20558;-58
2021/12/27 10:12:08;;;;;;;2.20;0.63;;;8.00;99.90;;;;;;5105557;28;20837;-57
2021/12/27 10:14:38;;;;;;;1.07;0.50;;;8.20;99.90;;;;;;5104223;28;20449;-58
2021/12/27 10:17:10;;;;;;;3.03;0.50;;;8.30;99.90;;;;;;5082682;28;20940;-59
2021/12/27 10:19:39;;;;;;;1.70;0.50;;;8.30;99.90;;;;;;5091333;28;20446;-59
2021/12/27 10:22:11;;;;;;;0.80;0.50;;;8.30;99.90;;;;;;5092729;28;20493;-59
2021/12/27 10:24:39;;;;;;;2.57;0.47;;;8.30;99.90;;;;;;5093938;28;20442;-57
2021/12/27 10:27:07;;;;;;;0.60;0.50;;;8.40;99.90;;;;;;5095185;28;20544;-56
2021/12/27 10:29:36;;;;;;;2.13;0.90;;;8.70;99.90;;;;;;5095091;28;20481;-58
2021/12/27 10:32:06;;;;;;;0.90;0.50;;;9.10;99.90;;;;;;5092712;28;20596;-58
2021/12/27 10:34:36;;;;;;;0.67;0.40;;;8.90;99.90;;;;;;5088887;28;20441;-58
2021/12/27 10:37:20;;;;;;;1.53;0.40;;;8.80;99.90;;;;;;5086962;28;20942;-58
2021/12/27 10:39:50;;;;;;;1.20;0.50;;;8.80;99.90;;;;;;5094422;28;20520;-58
2021/12/27 10:42:20;;;;;;;0.90;0.50;;;8.80;99.90;;;;;;5094382;28;20548;-58
2021/12/27 10:44:48;;;;;;;0.90;0.50;;;8.80;99.90;;;;;;5091981;28;20529;-58
2021/12/27 10:47:31;;;;;;;0.93;0.53;;;8.70;99.90;;;;;;5094938;28;20449;-58
2021/12/27 10:50:03;;;;;;;0.70;0.50;;;8.70;99.90;;;;;;5095036;28;20532;-59
2021/12/27 10:52:56;;;;;;;0.77;0.50;;;8.80;99.90;;;;;;5094567;28;20457;-59
2021/12/27 10:55:27;;;;;;;0.63;0.40;;;8.80;99.90;;;;;;5069000;28;20486;-59
2021/12/27 10:58:08;;;;;;;1.53;0.60;;;8.80;99.90;;;;;;5087248;28;20571;-58
2021/12/27 11:00:37;;;;;;;0.90;0.60;;;8.80;99.90;;;;;;5090542;28;20550;-59
2021/12/27 11:03:06;;;;;;;1.07;0.40;;;8.90;99.90;;;;;;5092159;28;20503;-59
2021/12/27 11:05:36;;;;;;;0.80;0.50;;;9.00;99.90;;;;;;5091816;28;20448;-59
2021/12/27 11:08:06;;;;;;;0.80;0.50;;;9.00;99.90;;;;;;5090337;28;20445;-59
2021/12/27 11:10:35;;;;;;;0.70;0.40;;;9.00;99.90;;;;;;5093011;28;20499;-59
2021/12/27 11:13:04;;;;;;;0.70;0.40;;;9.00;99.90;;;;;;5092825;28;20441;-58
2021/12/27 11:15:36;;;;;;;0.80;0.50;;;9.10;99.90;;;;;;5092457;28;20470;-58
2021/12/27 11:18:03;;;;;;;0.60;0.30;;;9.10;99.90;;;;;;5093237;28;20481;-58
2021/12/27 11:20:31;;;;;;;5.07;2.40;;;9.20;99.90;;;;;;5091932;28;20529;-60
2021/12/27 11:23:00;;;;;;;3.07;1.73;;;9.20;99.90;;;;;;5092229;28;20481;-57
2021/12/27 11:25:33;;;;;;;0.73;0.40;;;9.30;99.90;;;;;;5091749;28;20534;-58
2021/12/27 11:28:01;;;;;;;0.60;0.30;;;9.40;99.90;;;;;;5088879;28;20884;-59
2021/12/27 11:30:31;;;;;;;2.90;0.50;;;9.40;99.90;;;;;;5089916;28;20741;-58
2021/12/27 11:33:09;;;;;;;0.70;0.40;;;9.30;99.90;;;;;;5091809;28;20540;-58
2021/12/27 11:35:39;;;;;;;0.80;0.30;;;9.30;99.90;;;;;;5074720;28;20452;-57
2021/12/27 11:38:07;;;;;;;1.10;0.40;;;9.40;99.90;;;;;;5076911;28;20477;-58
2021/12/27 11:40:46;;;;;;;0.60;0.40;;;9.40;99.90;;;;;;5093071;28;20442;-59
2021/12/27 11:43:15;;;;;;;0.97;0.40;;;9.50;99.90;;;;;;5074100;28;20482;-59
2021/12/27 11:45:48;;;;;;;0.70;0.43;;;9.50;99.90;;;;;;5073768;28;20447;-59
2021/12/27 11:48:17;;;;;;;0.77;0.30;;;9.60;99.90;;;;;;5092052;28;20540;-58
2021/12/27 11:51:08;;;;;;;1.10;0.43;;;9.70;99.90;;;;;;5094599;28;20449;-58
2021/12/27 11:53:38;;;;;;;1.47;0.63;;;9.70;99.90;;;;;;5088903;28;20884;-57
2021/12/27 11:56:11;;;;;;;1.30;0.50;;;9.80;99.90;;;;;;5094564;28;20925;-59
2021/12/27 11:58:40;;;;;;;0.80;0.43;;;9.70;99.90;;;;;;5095611;28;20480;-59
2021/12/27 12:01:27;;;;;;;0.60;0.40;;;9.70;99.90;;;;;;5095646;28;20759;-59
2021/12/27 12:03:58;;;;;;;1.00;0.50;;;9.70;99.90;;;;;;5094623;28;20508;-60
2021/12/27 12:06:41;;;;;;;0.90;0.40;;;9.70;99.90;;;;;;5093811;28;20923;-59
2021/12/27 12:09:17;;;;;;;2.47;0.50;;;9.80;99.90;;;;;;5096791;28;20448;-57
2021/12/27 12:11:47;;;;;;;0.60;0.30;;;9.90;99.90;;;;;;5097007;28;20481;-58
2021/12/27 12:14:33;;;;;;;0.70;0.40;;;9.90;99.90;;;;;;5096164;28;20524;-58
2021/12/27 12:17:01;;;;;;;0.90;0.50;;;10.00;99.90;;;;;;5095812;28;20476;-58
2021/12/27 12:19:42;;;;;;;1.63;0.50;;;10.10;99.90;;;;;;5095820;28;20951;-59
2021/12/27 12:22:24;;;;;;;1.20;0.57;;;10.10;99.90;;;;;;5092894;28;20457;-58
2021/12/27 12:25:06;;;;;;;0.93;0.40;;;10.20;99.90;;;;;;5092973;28;20540;-60
2021/12/27 12:27:33;;;;;;;0.97;0.60;;;10.10;99.90;;;;;;5091657;28;20569;-58
2021/12/27 12:30:01;;;;;;;0.70;0.50;;;10.10;99.90;;;;;;5096272;28;20742;-58
2021/12/27 12:32:27;;;;;;;0.83;0.50;;;10.00;99.90;;;;;;5096848;28;20532;-58
2021/12/27 12:34:56;;;;;;;1.10;0.63;;;9.90;99.90;;;;;;5096806;28;20540;-58
2021/12/27 12:37:23;;;;;;;1.00;0.60;;;9.80;99.90;;;;;;5094914;28;20612;-57
2021/12/27 12:39:53;;;;;;;1.27;0.80;;;9.70;99.90;;;;;;5094867;28;20932;-59
2021/12/27 12:42:23;;;;;;;2.00;0.80;;;9.70;99.90;;;;;;5081905;28;20453;-60
2021/12/27 12:44:53;;;;;;;1.20;0.60;;;9.70;99.90;;;;;;5094920;28;20736;-60
2021/12/27 12:47:24;;;;;;;0.90;0.50;;;9.80;99.90;;;;;;5096891;28;20485;-58
2021/12/27 12:49:52;;;;;;;0.70;0.50;;;9.80;99.90;;;;;;5096807;28;20502;-59
2021/12/27 12:52:22;;;;;;;0.87;0.60;;;9.80;99.90;;;;;;5096131;28;20834;-59
2021/12/27 12:54:49;;;;;;;0.97;0.50;;;9.90;99.90;;;;;;5095316;28;20442;-61
2021/12/27 12:57:21;;;;;;;0.80;0.50;;;10.10;99.90;;;;;;5095942;28;20484;-60
2021/12/27 12:59:58;;;;;;;0.77;0.40;;;10.20;99.90;;;;;;5094880;28;20850;-60
2021/12/27 13:02:28;;;;;;;0.77;0.50;;;10.10;99.90;;;;;;5095547;28;20831;-59
2021/12/27 13:05:00;;;;;;;0.90;0.50;;;10.10;99.90;;;;;;5096180;28;20507;-59
2021/12/27 13:07:39;;;;;;;1.30;0.47;;;10.20;99.90;;;;;;5093515;28;20528;-59